createdAt,value
2023-03-25T00:00:39.677Z,61.30
2023-03-25T00:05:43.095Z,61.10
2023-03-25T00:10:52.666Z,61.10
2023-03-25T00:15:58.531Z,61.10
2023-03-25T00:21:03.145Z,61.20
2023-03-25T00:26:08.584Z,61.20
2023-03-25T00:31:14.754Z,61.20
2023-03-25T00:36:18.332Z,61.30
2023-03-25T00:41:27.614Z,61.20
2023-03-25T00:46:33.051Z,61.30
2023-03-25T00:51:36.548Z,61.40
2023-03-25T00:56:58.068Z,61.20
2023-03-25T01:02:02.955Z,61.10
2023-03-25T01:07:06.317Z,61.00
2023-03-25T01:12:11.100Z,60.80
2023-03-25T01:17:14.448Z,60.70
2023-03-25T01:22:17.807Z,60.60
2023-03-25T01:27:24.619Z,60.70
2023-03-25T01:32:29.626Z,60.70
2023-03-25T01:37:36.827Z,60.80
2023-03-25T01:42:41.543Z,60.80
2023-03-25T01:47:45.531Z,60.80
2023-03-25T01:52:52.184Z,60.80
2023-03-25T01:57:59.981Z,60.90
2023-03-25T02:03:04.095Z,60.80
2023-03-25T02:08:09.300Z,60.80
2023-03-25T02:13:16.028Z,60.80
2023-03-25T02:18:31.892Z,60.90
2023-03-25T02:31:11.825Z,61.00
2023-03-25T02:36:53.639Z,61.00
2023-03-25T02:42:04.885Z,60.90
2023-03-25T02:47:14.554Z,61.00
2023-03-25T02:52:22.733Z,60.90
2023-03-25T02:57:29.873Z,61.00
2023-03-25T03:02:34.306Z,61.20
2023-03-25T03:07:44.334Z,61.10
2023-03-25T03:13:01.488Z,61.20
2023-03-25T03:18:13.198Z,61.20
2023-03-25T03:23:26.876Z,61.10
2023-03-25T03:28:35.977Z,61.40
2023-03-25T03:33:48.154Z,61.20
2023-03-25T03:38:57.951Z,61.20
2023-03-25T03:44:06.251Z,61.20
2023-03-25T03:49:13.763Z,61.20
2023-03-25T03:54:22.642Z,61.20
2023-03-25T03:59:37.139Z,61.20
2023-03-25T04:04:42.787Z,61.20
2023-03-25T04:09:56.700Z,61.00
2023-03-25T04:15:04.583Z,61.10
2023-03-25T04:20:11.741Z,61.20
2023-03-25T04:25:15.114Z,61.00
2023-03-25T04:30:19.800Z,60.90
2023-03-25T04:35:23.339Z,61.00
2023-03-25T04:40:26.942Z,60.80
2023-03-25T04:45:36.502Z,61.00
2023-03-25T04:50:39.996Z,61.00
2023-03-25T04:55:48.146Z,61.00
2023-03-25T05:00:54.025Z,61.00
2023-03-25T05:05:57.441Z,61.20
2023-03-25T05:11:00.908Z,61.00
2023-03-25T05:16:06.088Z,61.20
2023-03-25T05:21:11.403Z,61.20
2023-03-25T05:26:14.687Z,61.20
2023-03-25T05:31:19.600Z,61.20
2023-03-25T05:36:25.168Z,61.20
2023-03-25T05:41:33.148Z,61.20
2023-03-25T05:46:38.014Z,61.20
2023-03-25T05:51:42.158Z,61.40
2023-03-25T05:56:45.712Z,61.30
2023-03-25T06:01:50.498Z,61.40
2023-03-25T06:06:54.023Z,61.30
2023-03-25T06:11:57.363Z,61.40
2023-03-25T06:17:02.566Z,61.00
2023-03-25T06:28:23.504Z,61.10
2023-03-25T06:33:43.425Z,61.10
2023-03-25T06:45:05.306Z,61.20
2023-03-25T06:50:22.794Z,61.30
2023-03-25T06:55:26.291Z,61.30
2023-03-25T07:00:29.554Z,61.10
2023-03-25T07:11:50.119Z,61.10
2023-03-25T07:16:53.535Z,60.90
2023-03-25T07:21:58.214Z,60.90
2023-03-25T07:27:01.615Z,60.90
2023-03-25T07:32:08.714Z,60.90
2023-03-25T07:37:13.665Z,60.60
2023-03-25T07:42:17.318Z,60.50
2023-03-25T07:47:38.559Z,60.30
2023-03-25T07:52:43.998Z,60.20
2023-03-25T07:57:48.001Z,59.90
2023-03-25T08:02:51.478Z,59.90
2023-03-25T08:08:00.201Z,60.00
2023-03-25T08:13:03.592Z,59.80
2023-03-25T08:18:07.834Z,59.90
2023-03-25T08:23:12.756Z,59.90
2023-03-25T08:28:17.410Z,59.80
2023-03-25T08:33:21.742Z,59.60
2023-03-25T08:38:34.686Z,59.40
2023-03-25T08:43:38.579Z,59.40
2023-03-25T08:48:43.977Z,59.30
2023-03-25T08:53:49.542Z,59.20
2023-03-25T08:58:53.186Z,58.90
2023-03-25T09:03:57.938Z,59.70
2023-03-25T09:09:02.740Z,59.00
2023-03-25T09:14:06.466Z,59.00
2023-03-25T09:25:56.718Z,58.50
2023-03-25T09:31:00.876Z,58.80
2023-03-25T09:36:04.616Z,59.00
2023-03-25T09:41:30.613Z,58.80
2023-03-25T09:46:34.880Z,58.10
2023-03-25T09:51:41.347Z,58.50
2023-03-25T09:56:47.671Z,58.20
2023-03-25T10:02:02.118Z,58.20
2023-03-25T10:07:16.893Z,57.70
2023-03-25T10:12:33.781Z,57.60
2023-03-25T10:17:46.135Z,57.60
2023-03-25T10:23:02.573Z,57.80
2023-03-25T10:28:13.013Z,57.40
2023-03-25T10:33:22.630Z,57.70
2023-03-25T10:38:26.300Z,57.70
2023-03-25T10:43:33.719Z,57.70
2023-03-25T10:48:38.424Z,57.40
2023-03-25T10:53:43.017Z,57.60
2023-03-25T10:58:52.137Z,57.50
2023-03-25T11:03:56.201Z,57.60
2023-03-25T11:09:18.267Z,57.10
2023-03-25T11:14:27.839Z,56.10
2023-03-25T11:19:38.996Z,56.20
2023-03-25T11:24:45.798Z,55.90
2023-03-25T11:29:56.365Z,55.90
2023-03-25T11:35:03.843Z,55.50
2023-03-25T11:40:16.424Z,55.70
2023-03-25T11:45:35.728Z,55.40
2023-03-25T11:50:39.431Z,55.40
2023-03-25T11:55:47.000Z,56.10
2023-03-25T12:00:53.737Z,55.50
2023-03-25T12:06:00.468Z,55.40
2023-03-25T12:11:08.641Z,58.30
2023-03-25T12:16:24.141Z,59.40
2023-03-25T12:21:40.091Z,60.20
2023-03-25T12:26:52.226Z,58.90
2023-03-25T12:32:10.325Z,59.10
2023-03-25T12:37:26.512Z,57.10
2023-03-25T12:42:42.484Z,55.10
2023-03-25T12:47:52.259Z,54.40
2023-03-25T12:53:01.215Z,53.60
2023-03-25T12:58:27.560Z,53.30
2023-03-25T13:04:16.093Z,52.60
2023-03-25T13:09:26.806Z,52.60
2023-03-25T13:14:35.740Z,52.60
2023-03-25T13:19:44.346Z,52.30
2023-03-25T13:24:52.486Z,52.50
2023-03-25T13:29:59.165Z,52.50
2023-03-25T13:35:09.274Z,52.30
2023-03-25T13:40:26.408Z,51.70
2023-03-25T13:45:33.629Z,50.60
2023-03-25T13:50:38.695Z,51.00
2023-03-25T13:55:45.150Z,50.80
2023-03-25T14:01:13.238Z,50.80
2023-03-25T14:06:45.798Z,50.20
2023-03-25T14:11:53.938Z,49.30
2023-03-25T14:17:00.265Z,50.50
2023-03-25T14:22:14.312Z,50.80
2023-03-25T14:27:20.772Z,49.90
2023-03-25T14:32:33.136Z,50.70
2023-03-25T14:37:38.226Z,49.60
2023-03-25T14:42:44.481Z,50.30
2023-03-25T14:47:54.966Z,50.10
2023-03-25T14:53:03.624Z,49.30
2023-03-25T14:58:16.313Z,49.80
2023-03-25T15:03:22.423Z,50.00
2023-03-25T15:08:32.605Z,50.10
2023-03-25T15:13:39.409Z,49.70
2023-03-25T15:19:02.624Z,50.00
2023-03-25T15:24:12.441Z,48.90
2023-03-25T15:29:42.743Z,49.30
2023-03-25T15:35:18.822Z,49.10
2023-03-25T15:40:32.203Z,49.00
2023-03-25T15:46:04.008Z,49.30
2023-03-25T15:51:20.732Z,53.00
2023-03-25T15:56:28.795Z,53.90
2023-03-25T16:01:34.044Z,54.70
2023-03-25T16:06:42.743Z,54.70
2023-03-25T16:11:48.138Z,54.30
2023-03-25T16:16:55.948Z,53.60
2023-03-25T16:28:43.955Z,53.30
2023-03-25T16:33:47.274Z,52.70
2023-03-25T16:38:51.275Z,52.50
2023-03-25T16:43:58.009Z,50.80
2023-03-25T16:49:02.685Z,49.40
2023-03-25T16:54:11.779Z,48.80
2023-03-25T16:59:23.851Z,49.90
2023-03-25T17:04:30.086Z,49.60
2023-03-25T17:09:35.469Z,49.70
2023-03-25T17:14:43.845Z,49.70
2023-03-25T17:19:52.057Z,50.50
2023-03-25T17:24:57.978Z,53.30
2023-03-25T17:30:18.775Z,52.30
2023-03-25T17:35:28.600Z,52.90
2023-03-25T17:40:33.723Z,52.80
2023-03-25T17:45:38.866Z,55.40
2023-03-25T17:50:52.671Z,54.90
2023-03-25T17:55:59.232Z,54.70
2023-03-25T18:01:04.909Z,54.20
2023-03-25T18:06:09.354Z,54.20
2023-03-25T18:11:14.320Z,54.20
2023-03-25T18:16:22.830Z,54.30
2023-03-25T18:21:28.366Z,54.50
2023-03-25T18:26:33.426Z,54.40
2023-03-25T18:31:38.997Z,54.30
2023-03-25T18:36:45.690Z,54.60
2023-03-25T18:41:51.777Z,54.70
2023-03-25T18:46:58.139Z,54.90
2023-03-25T18:52:03.148Z,55.10
2023-03-25T18:57:07.597Z,55.10
2023-03-25T19:02:13.599Z,55.20
2023-03-25T19:07:18.294Z,55.50
2023-03-25T19:12:22.591Z,55.40
2023-03-25T19:17:32.504Z,55.50
2023-03-25T19:22:38.266Z,55.70
2023-03-25T19:27:43.096Z,55.70
2023-03-25T19:32:51.058Z,55.70
2023-03-25T19:37:59.009Z,55.80
2023-03-25T19:43:05.936Z,55.90
2023-03-25T19:48:15.217Z,56.20
2023-03-25T19:53:22.665Z,56.50
2023-03-25T19:58:27.922Z,56.40
2023-03-25T20:03:36.611Z,56.60
2023-03-25T20:08:40.434Z,56.90
2023-03-25T20:13:46.522Z,56.90
2023-03-25T20:18:52.816Z,57.00
2023-03-25T20:23:58.737Z,56.90
2023-03-25T20:29:04.853Z,57.10
2023-03-25T20:34:11.502Z,57.30
2023-03-25T20:39:16.429Z,57.50
2023-03-25T20:44:22.440Z,57.60
2023-03-25T20:49:28.335Z,57.60
2023-03-25T20:54:32.356Z,58.50
2023-03-25T20:59:36.924Z,58.20
2023-03-25T21:04:42.692Z,58.40
2023-03-25T21:09:49.545Z,58.40
2023-03-25T21:14:53.803Z,58.20
2023-03-25T21:20:00.181Z,59.20
2023-03-25T21:25:04.085Z,58.80
2023-03-25T21:30:10.269Z,58.40
2023-03-25T21:42:00.276Z,58.90
2023-03-25T21:47:17.973Z,58.60
2023-03-25T21:52:22.441Z,58.40
2023-03-25T21:57:27.422Z,58.50
2023-03-25T22:02:31.311Z,59.40
2023-03-25T22:07:34.842Z,58.50
2023-03-25T22:12:39.629Z,58.70
2023-03-25T22:17:42.999Z,58.70
2023-03-25T22:22:47.455Z,58.70
2023-03-25T22:27:52.232Z,58.90
2023-03-25T22:32:55.631Z,59.10
2023-03-25T22:37:59.342Z,58.90
2023-03-25T22:43:04.154Z,59.10
2023-03-25T22:48:08.026Z,59.20
2023-03-25T22:53:11.357Z,59.30
2023-03-25T22:58:16.018Z,59.30
2023-03-25T23:03:20.099Z,60.20
2023-03-25T23:08:25.920Z,60.00
2023-03-25T23:13:31.423Z,59.70
2023-03-25T23:18:36.680Z,60.50
2023-03-25T23:23:52.571Z,59.80
2023-03-25T23:29:00.557Z,59.50
2023-03-25T23:34:05.908Z,59.60
2023-03-25T23:39:11.144Z,59.70
2023-03-25T23:44:16.717Z,59.40
2023-03-25T23:49:20.293Z,59.20
2023-03-25T23:54:23.819Z,59.10
2023-03-25T23:59:28.595Z,59.10
